createdAt,value
2024-03-16T00:00:28.867Z,83.76
2024-03-16T00:03:16.920Z,83.63
2024-03-16T00:05:45.197Z,83.35
2024-03-16T00:08:13.173Z,83.23
2024-03-16T00:10:41.046Z,83.12
2024-03-16T00:13:09.070Z,83.40
2024-03-16T00:15:37.064Z,83.55
2024-03-16T00:18:05.365Z,83.67
2024-03-16T00:20:33.422Z,83.50
2024-03-16T00:23:02.321Z,83.43
2024-03-16T00:25:30.277Z,83.45
2024-03-16T00:27:58.518Z,83.23
2024-03-16T00:30:26.993Z,83.45
2024-03-16T00:32:55.829Z,83.62
2024-03-16T00:35:24.092Z,84.08
2024-03-16T00:37:52.201Z,84.12
2024-03-16T00:40:21.129Z,83.85
2024-03-16T00:42:49.371Z,83.61
2024-03-16T00:45:17.403Z,83.65
2024-03-16T00:47:45.561Z,83.72
2024-03-16T00:50:15.833Z,83.83
2024-03-16T00:52:43.966Z,83.85
2024-03-16T00:55:12.291Z,83.68
2024-03-16T00:57:40.709Z,83.84
2024-03-16T01:00:10.806Z,83.69
2024-03-16T01:02:40.555Z,83.61
2024-03-16T01:05:08.958Z,83.61
2024-03-16T01:07:37.573Z,83.55
2024-03-16T01:10:06.650Z,83.53
2024-03-16T01:12:34.977Z,83.52
2024-03-16T01:15:03.128Z,83.78
2024-03-16T01:17:31.075Z,83.58
2024-03-16T01:19:59.407Z,83.79
2024-03-16T01:22:27.484Z,83.53
2024-03-16T01:24:55.513Z,83.77
2024-03-16T01:27:23.435Z,83.72
2024-03-16T01:29:51.328Z,83.83
2024-03-16T01:32:19.459Z,83.80
2024-03-16T01:34:47.598Z,83.71
2024-03-16T01:37:15.690Z,83.80
2024-03-16T01:39:45.566Z,83.86
2024-03-16T01:42:14.412Z,84.08
2024-03-16T01:45:11.883Z,84.16
2024-03-16T01:47:40.035Z,84.05
2024-03-16T01:50:10.329Z,84.09
2024-03-16T01:52:38.472Z,84.05
2024-03-16T01:55:06.904Z,84.31
2024-03-16T01:57:35.453Z,84.25
2024-03-16T02:00:04.668Z,84.23
2024-03-16T02:02:38.214Z,84.19
2024-03-16T02:05:07.405Z,84.53
2024-03-16T02:07:40.094Z,84.27
2024-03-16T02:10:11.484Z,84.06
2024-03-16T02:12:39.975Z,84.20
2024-03-16T02:15:08.690Z,84.04
2024-03-16T02:17:37.886Z,83.86
2024-03-16T02:20:10.725Z,83.82
2024-03-16T02:22:38.733Z,84.02
2024-03-16T02:25:08.244Z,84.00
2024-03-16T02:27:36.754Z,84.13
2024-03-16T02:30:06.874Z,84.03
2024-03-16T02:32:35.154Z,84.07
2024-03-16T02:35:03.599Z,84.65
2024-03-16T02:37:31.577Z,84.39
2024-03-16T02:39:59.800Z,84.53
2024-03-16T02:42:28.691Z,84.42
2024-03-16T02:44:56.712Z,84.51
2024-03-16T02:47:25.618Z,84.19
2024-03-16T02:49:53.823Z,84.18
2024-03-16T02:52:21.737Z,84.14
2024-03-16T02:54:49.992Z,84.16
2024-03-16T02:57:18.021Z,84.24
2024-03-16T02:59:46.444Z,84.44
2024-03-16T03:02:15.558Z,84.22
2024-03-16T03:04:43.633Z,84.10
2024-03-16T03:07:11.822Z,84.27
2024-03-16T03:09:39.859Z,84.52
2024-03-16T03:12:08.561Z,84.89
2024-03-16T03:14:36.675Z,85.04
2024-03-16T03:17:04.718Z,84.79
2024-03-16T03:19:32.618Z,84.71
2024-03-16T03:22:00.711Z,84.57
2024-03-16T03:24:28.788Z,84.46
2024-03-16T03:26:57.096Z,84.68
2024-03-16T03:29:25.077Z,84.85
2024-03-16T03:31:53.259Z,84.97
2024-03-16T03:34:21.702Z,85.12
2024-03-16T03:36:50.447Z,85.05
2024-03-16T03:39:19.119Z,85.07
2024-03-16T03:41:47.579Z,85.00
2024-03-16T03:44:37.681Z,85.07
2024-03-16T03:47:05.815Z,84.78
2024-03-16T03:49:36.647Z,84.68
2024-03-16T03:52:06.105Z,85.22
2024-03-16T03:54:36.021Z,85.12
2024-03-16T03:57:05.428Z,84.94
2024-03-16T03:59:33.992Z,85.21
2024-03-16T04:02:02.189Z,85.23
2024-03-16T04:04:30.329Z,85.33
2024-03-16T04:06:58.386Z,85.41
2024-03-16T04:09:26.456Z,85.49
2024-03-16T04:11:54.539Z,85.53
2024-03-16T04:14:22.812Z,85.54
2024-03-16T04:16:50.902Z,85.44
2024-03-16T04:19:18.804Z,85.61
2024-03-16T04:21:51.394Z,85.74
2024-03-16T04:24:19.974Z,85.96
2024-03-16T04:26:47.877Z,85.96
2024-03-16T04:29:16.473Z,85.80
2024-03-16T04:31:44.409Z,85.74
2024-03-16T04:34:13.126Z,85.73
2024-03-16T04:36:42.032Z,85.83
2024-03-16T04:39:10.387Z,85.82
2024-03-16T04:41:38.457Z,85.78
2024-03-16T04:44:06.330Z,85.70
2024-03-16T04:46:34.811Z,85.60
2024-03-16T04:49:03.298Z,85.58
2024-03-16T04:51:31.835Z,85.71
2024-03-16T04:54:02.373Z,85.64
2024-03-16T04:56:30.465Z,85.55
2024-03-16T04:58:58.321Z,85.55
2024-03-16T05:01:27.309Z,85.25
2024-03-16T05:03:55.218Z,85.27
2024-03-16T05:06:23.371Z,85.18
2024-03-16T05:08:52.463Z,85.34
2024-03-16T05:11:20.604Z,85.21
2024-03-16T05:13:48.903Z,85.36
2024-03-16T05:16:17.132Z,85.37
2024-03-16T05:18:45.292Z,84.92
2024-03-16T05:21:13.715Z,84.70
2024-03-16T05:23:42.207Z,84.43
2024-03-16T05:26:10.097Z,84.54
2024-03-16T05:28:38.074Z,84.53
2024-03-16T05:31:06.760Z,84.55
2024-03-16T05:33:35.438Z,84.82
2024-03-16T05:36:06.498Z,84.80
2024-03-16T05:38:34.354Z,84.58
2024-03-16T05:41:02.315Z,84.71
2024-03-16T05:43:30.361Z,84.40
2024-03-16T05:45:58.443Z,84.24
2024-03-16T05:48:26.650Z,84.29
2024-03-16T05:50:54.912Z,83.71
2024-03-16T05:53:25.061Z,83.11
2024-03-16T05:55:53.076Z,83.05
2024-03-16T05:58:24.011Z,82.26
2024-03-16T06:00:52.084Z,81.50
2024-03-16T06:03:20.164Z,80.96
2024-03-16T06:05:48.333Z,80.94
2024-03-16T06:08:16.411Z,81.08
2024-03-16T06:10:45.310Z,80.80
2024-03-16T06:13:14.451Z,80.11
2024-03-16T06:15:42.475Z,79.92
2024-03-16T06:18:10.946Z,79.65
2024-03-16T06:20:39.241Z,79.46
2024-03-16T06:23:07.811Z,78.99
2024-03-16T06:25:48.450Z,78.13
2024-03-16T06:28:23.149Z,78.38
2024-03-16T06:30:56.947Z,76.61
2024-03-16T06:33:34.323Z,76.46
2024-03-16T06:36:02.526Z,76.43
2024-03-16T06:38:30.895Z,75.08
2024-03-16T06:40:59.047Z,73.76
2024-03-16T06:43:27.311Z,73.38
2024-03-16T06:45:55.179Z,73.79
2024-03-16T06:48:23.850Z,73.03
2024-03-16T06:50:53.062Z,72.63
2024-03-16T06:53:21.211Z,72.50
2024-03-16T06:55:52.624Z,72.58
2024-03-16T06:58:20.526Z,71.15
2024-03-16T07:00:51.982Z,70.34
2024-03-16T07:03:20.489Z,71.08
2024-03-16T07:05:48.737Z,70.26
2024-03-16T07:08:18.650Z,70.14
2024-03-16T07:10:47.049Z,69.34
2024-03-16T07:13:15.245Z,68.84
2024-03-16T07:15:45.375Z,68.11
2024-03-16T07:18:13.549Z,67.51
2024-03-16T07:20:42.662Z,67.68
2024-03-16T07:23:10.760Z,69.01
2024-03-16T07:25:38.820Z,68.79
2024-03-16T07:28:09.208Z,67.34
2024-03-16T07:30:37.823Z,67.15
2024-03-16T07:33:06.037Z,65.05
2024-03-16T07:35:36.229Z,66.21
2024-03-16T07:38:05.939Z,66.45
2024-03-16T07:40:34.053Z,63.95
2024-03-16T07:43:03.078Z,63.32
2024-03-16T07:45:31.663Z,61.91
2024-03-16T07:47:59.879Z,61.99
2024-03-16T07:50:27.835Z,61.52
2024-03-16T07:52:55.805Z,61.24
2024-03-16T07:55:23.795Z,61.56
2024-03-16T07:57:52.171Z,63.69
2024-03-16T08:00:20.441Z,62.95
2024-03-16T08:02:48.473Z,60.70
2024-03-16T08:05:16.411Z,62.76
2024-03-16T08:07:45.609Z,59.48
2024-03-16T08:10:13.965Z,60.99
2024-03-16T08:12:42.878Z,61.14
2024-03-16T08:15:11.938Z,62.55
2024-03-16T08:17:39.946Z,62.15
2024-03-16T08:20:09.639Z,62.06
2024-03-16T08:22:37.660Z,60.41
2024-03-16T08:25:07.413Z,61.79
2024-03-16T08:27:37.836Z,61.65
2024-03-16T08:30:06.628Z,59.20
2024-03-16T08:32:34.818Z,59.22
2024-03-16T08:35:04.886Z,59.27
2024-03-16T08:37:33.321Z,59.99
2024-03-16T08:40:01.685Z,60.25
2024-03-16T08:42:30.544Z,58.04
2024-03-16T08:44:58.554Z,59.77
2024-03-16T08:47:26.899Z,59.73
2024-03-16T08:49:55.092Z,59.40
2024-03-16T08:52:25.504Z,57.32
2024-03-16T08:54:57.094Z,57.32
2024-03-16T08:57:25.937Z,59.21
2024-03-16T08:59:54.435Z,60.51
2024-03-16T09:02:25.439Z,58.52
2024-03-16T09:04:53.736Z,58.30
2024-03-16T09:07:21.727Z,57.89
2024-03-16T09:09:50.241Z,57.22
2024-03-16T09:12:18.437Z,57.53
2024-03-16T09:14:46.439Z,57.49
2024-03-16T09:17:14.336Z,57.30
2024-03-16T09:19:42.289Z,57.99
2024-03-16T09:22:10.557Z,56.93
2024-03-16T09:24:38.732Z,57.82
2024-03-16T09:27:06.736Z,57.78
2024-03-16T09:29:34.756Z,56.53
2024-03-16T09:32:02.800Z,56.56
2024-03-16T09:34:30.991Z,56.42
2024-03-16T09:36:58.994Z,56.34
2024-03-16T09:39:28.408Z,56.27
2024-03-16T09:41:58.531Z,55.91
2024-03-16T09:44:27.213Z,54.97
2024-03-16T09:46:56.364Z,54.99
2024-03-16T09:49:25.363Z,55.66
2024-03-16T09:51:55.005Z,56.39
2024-03-16T09:54:23.466Z,56.14
2024-03-16T09:56:51.622Z,55.25
2024-03-16T09:59:29.772Z,54.47
2024-03-16T10:02:01.376Z,54.16
2024-03-16T10:04:29.362Z,54.34
2024-03-16T10:06:57.611Z,54.99
2024-03-16T10:09:26.746Z,55.36
2024-03-16T10:11:56.121Z,54.84
2024-03-16T10:14:24.365Z,54.70
2024-03-16T10:16:52.280Z,54.15
2024-03-16T10:19:25.081Z,55.79
2024-03-16T10:21:54.839Z,55.30
2024-03-16T10:24:24.056Z,55.81
2024-03-16T10:26:52.126Z,55.26
2024-03-16T10:29:22.363Z,56.16
2024-03-16T10:31:55.001Z,55.59
2024-03-16T10:34:24.224Z,54.94
2024-03-16T10:36:53.182Z,54.39
2024-03-16T10:39:23.730Z,52.79
2024-03-16T10:41:53.981Z,53.09
2024-03-16T10:44:23.065Z,53.21
2024-03-16T10:46:51.337Z,54.51
2024-03-16T10:49:19.410Z,53.51
2024-03-16T10:51:47.481Z,54.76
2024-03-16T10:54:16.005Z,54.30
2024-03-16T10:56:46.140Z,53.45
2024-03-16T10:59:32.593Z,54.32
2024-03-16T11:02:02.157Z,53.13
2024-03-16T11:04:31.801Z,51.88
2024-03-16T11:06:59.865Z,52.60
2024-03-16T11:09:34.112Z,52.56
2024-03-16T11:12:03.207Z,51.98
2024-03-16T11:14:32.689Z,52.82
2024-03-16T11:17:01.157Z,50.80
2024-03-16T11:19:29.117Z,49.94
2024-03-16T11:22:01.385Z,51.47
2024-03-16T11:24:29.887Z,51.06
2024-03-16T11:26:57.857Z,51.15
2024-03-16T11:29:28.873Z,51.48
2024-03-16T11:31:58.090Z,50.35
2024-03-16T11:34:27.046Z,49.69
2024-03-16T11:36:56.318Z,50.84
2024-03-16T11:39:25.830Z,50.79
2024-03-16T11:42:04.880Z,47.64
2024-03-16T11:44:37.202Z,45.00
2024-03-16T11:47:06.386Z,45.01
2024-03-16T11:49:35.953Z,43.60
2024-03-16T11:52:05.915Z,43.91
2024-03-16T11:54:34.317Z,43.29
2024-03-16T11:57:02.365Z,42.88
2024-03-16T11:59:30.444Z,42.51
2024-03-16T12:01:59.325Z,43.33
2024-03-16T12:04:29.650Z,43.84
2024-03-16T12:07:00.586Z,44.07
2024-03-16T12:09:36.937Z,43.76
2024-03-16T12:12:09.025Z,43.48
2024-03-16T12:14:43.128Z,42.64
2024-03-16T12:17:12.633Z,41.98
2024-03-16T12:19:40.912Z,42.96
2024-03-16T12:22:16.198Z,43.17
2024-03-16T12:24:44.729Z,40.88
2024-03-16T12:27:13.631Z,42.06
2024-03-16T12:29:44.764Z,40.81
2024-03-16T12:32:13.040Z,41.04
2024-03-16T12:34:41.214Z,42.31
2024-03-16T12:37:09.316Z,41.08
2024-03-16T12:39:38.101Z,40.26
2024-03-16T12:42:07.431Z,38.58
2024-03-16T12:44:35.545Z,38.12
2024-03-16T12:47:03.786Z,37.04
2024-03-16T12:49:31.671Z,37.52
2024-03-16T12:51:59.759Z,38.48
2024-03-16T12:54:28.248Z,38.93
2024-03-16T12:56:56.534Z,39.55
2024-03-16T12:59:25.634Z,39.16
2024-03-16T13:01:53.584Z,39.06
2024-03-16T13:04:21.447Z,39.45
2024-03-16T13:06:49.422Z,38.72
2024-03-16T13:09:17.413Z,37.53
2024-03-16T13:11:45.564Z,36.97
2024-03-16T13:14:14.151Z,38.51
2024-03-16T13:16:42.136Z,37.81
2024-03-16T13:19:13.251Z,38.14
2024-03-16T13:21:41.985Z,38.30
2024-03-16T13:24:10.056Z,38.02
2024-03-16T13:26:38.246Z,37.67
2024-03-16T13:29:07.316Z,38.42
2024-03-16T13:31:35.560Z,38.02
2024-03-16T13:34:04.573Z,37.28
2024-03-16T13:36:32.621Z,37.07
2024-03-16T13:39:00.886Z,37.34
2024-03-16T13:41:28.778Z,37.12
2024-03-16T13:43:56.868Z,37.35
2024-03-16T13:46:25.519Z,37.41
2024-03-16T13:49:01.627Z,36.94
2024-03-16T13:51:33.776Z,37.54
2024-03-16T13:54:02.273Z,38.07
2024-03-16T13:56:33.878Z,37.32
2024-03-16T13:59:03.097Z,36.96
2024-03-16T14:01:31.241Z,36.53
2024-03-16T14:04:00.254Z,37.33
2024-03-16T14:06:29.244Z,38.32
2024-03-16T14:08:57.439Z,38.18
2024-03-16T14:11:26.069Z,37.56
2024-03-16T14:13:57.087Z,37.37
2024-03-16T14:16:25.409Z,36.85
2024-03-16T14:18:53.315Z,37.09
2024-03-16T14:21:21.305Z,37.89
2024-03-16T14:23:49.413Z,38.07
2024-03-16T14:26:17.904Z,38.21
2024-03-16T14:28:46.655Z,38.19
2024-03-16T14:31:15.573Z,38.30
2024-03-16T14:33:43.798Z,37.44
2024-03-16T14:36:14.736Z,36.95
2024-03-16T14:38:43.372Z,36.09
2024-03-16T14:41:11.667Z,35.67
2024-03-16T14:43:39.723Z,35.46
2024-03-16T14:46:07.752Z,35.82
2024-03-16T14:48:36.440Z,35.10
2024-03-16T14:51:04.988Z,35.06
2024-03-16T14:53:33.346Z,35.97
2024-03-16T14:56:01.728Z,35.39
2024-03-16T14:58:29.609Z,35.64
2024-03-16T15:00:58.071Z,35.47
2024-03-16T15:03:26.244Z,35.47
2024-03-16T15:05:54.556Z,35.99
2024-03-16T15:08:23.241Z,35.95
2024-03-16T15:10:51.144Z,35.43
2024-03-16T15:13:19.748Z,35.93
2024-03-16T15:15:47.692Z,36.41
2024-03-16T15:18:15.887Z,36.01
2024-03-16T15:20:43.767Z,36.42
2024-03-16T15:23:12.272Z,36.27
2024-03-16T15:26:00.216Z,36.45
2024-03-16T15:28:34.715Z,37.04
2024-03-16T15:31:02.769Z,37.71
2024-03-16T15:33:32.338Z,37.96
2024-03-16T15:36:00.650Z,38.50
2024-03-16T15:38:28.733Z,38.70
2024-03-16T15:40:56.969Z,38.94
2024-03-16T15:43:25.467Z,38.64
2024-03-16T15:45:53.468Z,38.82
2024-03-16T15:48:22.272Z,39.26
2024-03-16T15:50:50.444Z,40.47
2024-03-16T15:53:18.487Z,42.30
2024-03-16T15:55:48.533Z,44.31
2024-03-16T15:58:18.431Z,45.97
2024-03-16T16:00:47.067Z,46.95
2024-03-16T16:03:15.173Z,47.70
2024-03-16T16:05:43.219Z,48.53
2024-03-16T16:08:11.655Z,49.03
2024-03-16T16:10:41.682Z,49.38
2024-03-16T16:13:13.152Z,49.82
2024-03-16T16:15:41.374Z,50.54
2024-03-16T16:18:09.331Z,51.20
2024-03-16T16:20:37.304Z,51.53
2024-03-16T16:23:08.145Z,52.00
2024-03-16T16:25:36.401Z,52.72
2024-03-16T16:28:09.681Z,53.02
2024-03-16T16:30:37.947Z,53.42
2024-03-16T16:33:09.062Z,53.83
2024-03-16T16:35:40.218Z,54.19
2024-03-16T16:38:08.248Z,54.65
2024-03-16T16:40:36.995Z,54.97
2024-03-16T16:43:05.932Z,55.96
2024-03-16T16:45:33.980Z,55.67
2024-03-16T16:48:02.158Z,55.67
2024-03-16T16:50:30.406Z,56.46
2024-03-16T16:52:58.289Z,56.77
2024-03-16T16:55:26.255Z,57.47
2024-03-16T16:57:54.341Z,57.58
2024-03-16T17:00:24.544Z,57.82
2024-03-16T17:02:52.870Z,58.27
2024-03-16T17:05:20.703Z,58.77
2024-03-16T17:07:48.683Z,59.21
